Data for 02/21/2007

Time Sea-Level Adjusted Pressure Absolute Pressure Temperature Relative Humidity Dew Point   
(mb) (inHg) (mb) (inHg) (C) (F) (%) (C) (F)
00:05 1009 29.8 838 24.75 -1.9 28.6 82 -4.6 23.8
00:10 1009 29.8 838 24.75 -2 28.5 83 -4.4 24
00:15 1009 29.8 838 24.75 -2 28.4 85 -4.3 24.3
00:20 1009 29.8 838 24.75 -2 28.3 86 -4 24.7
00:25 1009 29.8 839 24.78 -2.1 28.2 87 -4 24.9
00:30 1009 29.8 839 24.78 -2.1 28.1 88 -3.9 25
00:35 1009 29.8 839 24.78 -2.2 28 88 -3.9 25
00:40 1009 29.8 839 24.78 -2 28.3 86 -4.1 24.6
00:45 1010 29.83 839 24.78 -2 28.4 86 -3.9 24.9
00:50 1010 29.83 839 24.78 -2 28.4 87 -3.9 24.9
00:55 1010 29.83 839 24.78 -2.1 28.2 87 -4 24.8
01:00 1010 29.83 839 24.78 -2.2 28 88 -4 24.8
01:05 1010 29.83 839 24.78 -2.3 27.9 89 -3.8 25.1
01:10 1010 29.83 839 24.78 -2.3 27.9 90 -3.7 25.3
01:15 1010 29.83 839 24.78 -2.3 27.9 90 -3.7 25.3
01:20 1010 29.83 839 24.78 -2.2 28.1 88 -3.9 25
01:25 1010 29.83 839 24.78 -1.9 28.6 84 -4.2 24.5
01:30 1010 29.83 839 24.78 -1.8 28.8 84 -4.1 24.7
01:35 1010 29.83 839 24.78 -1.7 28.9 83 -4.2 24.4
01:40 1010 29.83 839 24.78 -1.7 28.9 82 -4.3 24.2
01:45 1010 29.83 839 24.78 -1.7 29 83 -4.2 24.4
01:50 1010 29.83 839 24.78 -1.5 29.4 81 -4.2 24.4
01:55 1010 29.83 840 24.81 -1.4 29.5 81 -4.3 24.3
02:00 1010 29.83 840 24.81 -1.4 29.5 80 -4.4 24.1
02:05 1010 29.83 840 24.81 -1.4 29.5 80 -4.4 24.1
02:10 1011 29.85 840 24.81 -1.4 29.5 80 -4.5 24
02:15 1011 29.85 840 24.81 -1.4 29.5 78 -4.7 23.6
02:20 1011 29.85 840 24.81 -1.4 29.5 76 -5.1 22.9
02:25 1011 29.85 840 24.81 -1.3 29.6 72 -5.7 21.7
02:30 1011 29.85 840 24.81 -1.2 29.8 69 -6.1 21
02:35 1011 29.85 840 24.81 -1.2 29.8 68 -6.3 20.6
02:40 1011 29.85 840 24.81 -1.3 29.7 68 -6.4 20.5
02:45 1011 29.85 840 24.81 -1.3 29.6 62 -7.7 18.1
02:50 1011 29.85 840 24.81 -1.2 29.8 61 -7.9 17.9
02:55 1011 29.85 840 24.81 -1.3 29.7 60 -8.1 17.3
03:00 1011 29.85 840 24.81 -1.2 29.8 59 -8.2 17.3
03:05 1011 29.85 840 24.81 -1.3 29.6 59 -8.3 17
03:10 1011 29.85 840 24.81 -1.5 29.4 59 -8.6 16.6
03:15 1011 29.85 840 24.81 -1.5 29.4 57 -9 15.8
03:20 1011 29.85 840 24.81 -1.5 29.3 57 -9 15.8
03:25 1011 29.85 840 24.81 -1.5 29.3 56 -9.3 15.3
03:30 1011 29.85 840 24.81 -1.6 29.2 57 -8.9 16
03:35 1011 29.85 841 24.83 -1.7 28.9 59 -8.8 16.1
03:40 1011 29.85 841 24.83 -1.8 28.8 58 -8.9 15.9
03:45 1011 29.85 841 24.83 -1.8 28.7 59 -8.8 16.2
03:50 1012 29.88 841 24.83 -1.8 28.7 58 -9 15.8
03:55 1012 29.88 841 24.83 -1.8 28.7 58 -9 15.8
04:00 1012 29.88 841 24.83 -1.8 28.7 59 -8.8 16.1
04:05 1012 29.88 841 24.83 -1.8 28.7 58 -9.1 15.6
04:10 1012 29.88 841 24.83 -1.8 28.8 56 -9.4 15
04:15 1012 29.88 841 24.83 -1.7 29 56 -9.3 15.2
04:20 1011 29.85 841 24.83 -1.7 28.9 56 -9.4 15.1
04:25 1011 29.85 841 24.83 -1.8 28.7 57 -9.3 15.2
04:30 1011 29.85 841 24.83 -2 28.4 56 -9.7 14.5
04:35 1011 29.85 841 24.83 -1.9 28.5 53 -10.2 13.6
04:40 1011 29.85 841 24.83 -1.9 28.6 54 -10.1 13.9
04:45 1012 29.88 841 24.83 -2 28.3 56 -9.7 14.6
04:50 1012 29.88 841 24.83 -2.2 28 56 -10 14
04:55 1012 29.88 841 24.83 -2.2 28.1 57 -9.7 14.6
05:00 1012 29.88 841 24.83 -2.2 28 55 -10.1 13.8
05:05 1012 29.88 841 24.83 -2.1 28.1 58 -9.4 15.1
05:10 1012 29.88 841 24.83 -2.2 28.1 61 -8.8 16.1
05:15 1012 29.88 841 24.83 -2.2 28 62 -8.7 16.4
05:20 1012 29.88 841 24.83 -2.4 27.7 62 -8.6 16.5
05:25 1012 29.88 841 24.83 -2.5 27.5 62 -8.8 16.1
05:30 1012 29.88 842 24.86 -2.5 27.5 62 -8.8 16.1
05:35 1012 29.88 842 24.86 -2.4 27.6 63 -8.6 16.4
05:40 1012 29.88 842 24.86 -2.5 27.6 63 -8.6 16.5
05:45 1012 29.88 842 24.86 -2.5 27.5 63 -8.6 16.5
05:50 1012 29.88 842 24.86 -2.6 27.3 63 -8.7 16.3
05:55 1012 29.88 842 24.86 -2.6 27.3 63 -8.7 16.3
06:00 1013 29.91 842 24.86 -2.7 27.1 63 -8.7 16.3
06:05 1013 29.91 842 24.86 -2.8 26.9 64 -8.8 16.2
06:10 1013 29.91 842 24.86 -2.8 27 61 -9.2 15.5
06:15 1013 29.91 842 24.86 -2.7 27.2 60 -9.3 15.2
06:20 1013 29.91 842 24.86 -2.6 27.4 59 -9.4 15
06:25 1013 29.91 842 24.86 -2.6 27.4 61 -9.1 15.6
06:30 1013 29.91 842 24.86 -2.6 27.3 62 -9 15.8
06:35 1013 29.91 842 24.86 -2.7 27.1 61 -9.1 15.5
06:40 1013 29.91 842 24.86 -2.7 27.2 62 -9 15.8
06:45 1013 29.91 842 24.86 -2.7 27.2 63 -8.9 16
06:50 1013 29.91 842 24.86 -2.7 27.1 63 -8.8 16.2
06:55 1013 29.91 842 24.86 -2.8 27 63 -8.9 16
07:00 1013 29.91 842 24.86 -2.7 27.1 63 -8.9 16.1
07:05 1013 29.91 842 24.86 -2.7 27.2 63 -8.7 16.3
07:10 1013 29.91 842 24.86 -2.7 27.2 64 -8.5 16.6
07:15 1013 29.91 842 24.86 -2.9 26.8 64 -8.9 16.1
07:20 1013 29.91 842 24.86 -3.1 26.4 63 -9.1 15.6
07:25 1013 29.91 842 24.86 -3.2 26.3 64 -9.1 15.6
07:30 1013 29.91 843 24.89 -3.1 26.4 63 -9.1 15.6
07:35 1013 29.91 843 24.89 -3 26.5 63 -9.2 15.5
07:40 1014 29.94 843 24.89 -2.9 26.7 62 -9.3 15.2
07:45 1014 29.94 843 24.89 -2.8 26.9 59 -9.8 14.4
07:50 1014 29.94 843 24.89 -2.7 27.2 57 -9.9 14.1
07:55 1014 29.94 843 24.89 -2.4 27.6 56 -10.1 13.9
08:00 1014 29.94 843 24.89 -2.2 28 56 -9.8 14.3
08:05 1014 29.94 843 24.89 -2.2 28 57 -9.7 14.5
08:10 1014 29.94 843 24.89 -2.2 28 57 -9.7 14.6
08:15 1014 29.94 843 24.89 -2.3 27.9 57 -9.7 14.6
08:20 1014 29.94 843 24.89 -2.2 28 56 -9.9 14.1
08:25 1014 29.94 843 24.89 -2 28.3 56 -9.7 14.5
08:30 1014 29.94 843 24.89 -2 28.4 54 -10 13.9
08:35 1014 29.94 843 24.89 -2 28.4 54 -10 13.9
08:40 1014 29.94 843 24.89 -1.9 28.6 52 -10.4 13.3
08:45 1014 29.94 844 24.92 -1.7 28.9 51 -10.6 12.9
08:50 1014 29.94 844 24.92 -1.6 29.1 50 -10.7 12.7
08:55 1014 29.94 844 24.92 -1.5 29.2 50 -10.8 12.6
09:00 1015 29.97 844 24.92 -1.2 29.9 47 -11.1 12
09:05 1015 29.97 844 24.92 -0.9 30.4 47 -11 12.3
09:10 1014 29.94 844 24.92 -1 30.3 47 -11 12.3
09:15 1015 29.97 844 24.92 -1 30.1 46 -11.3 11.7
09:20 1015 29.97 844 24.92 -0.7 30.7 46 -11.1 12
09:25 1015 29.97 844 24.92 -0.6 30.9 44 -11.4 11.6
09:30 1015 29.97 844 24.92 -0.6 30.9 45 -11.2 11.9
09:35 1015 29.97 844 24.92 -0.5 31.1 45 -11 12.3
09:40 1015 29.97 844 24.92 -0.3 31.4 45 -11 12.2
09:45 1015 29.97 844 24.92 -0.3 31.4 45 -10.9 12.4
09:50 1015 29.97 844 24.92 -0.2 31.7 43 -11.3 11.7
09:55 1015 29.97 844 24.92 0 32 44 -10.8 12.6
10:00 1015 29.97 844 24.92 0.1 32.1 43 -11.2 11.8
10:05 1015 29.97 844 24.92 0.1 32.1 45 -10.6 12.9
10:10 1015 29.97 844 24.92 -0.6 30.8 49 -10.1 13.9
10:15 1015 29.97 844 24.92 -0.9 30.3 50 -10.1 13.8
10:20 1015 29.97 844 24.92 -0.9 30.5 50 -10 14
10:25 1015 29.97 844 24.92 -0.7 30.7 49 -10.1 13.8
10:30 1015 29.97 844 24.92 -0.3 31.4 48 -10 14
10:35 1015 29.97 844 24.92 -0.3 31.4 48 -10 14
10:40 1015 29.97 844 24.92 -0.2 31.6 48 -9.9 14.1
10:45 1015 29.97 844 24.92 -0.7 30.7 48 -10.4 13.3
10:50 1015 29.97 844 24.92 -1.5 29.4 49 -10.9 12.4
10:55 1015 29.97 844 24.92 -1.2 29.9 50 -10.4 13.2
11:00 1015 29.97 844 24.92 -0.7 30.7 48 -10.4 13.2
11:05 1015 29.97 844 24.92 -0.5 31.1 46 -10.6 12.9
11:10 1015 29.97 844 24.92 -0.7 30.8 49 -10.1 13.8
11:15 1015 29.97 844 24.92 -0.5 31 49 -9.9 14.1
11:20 1015 29.97 844 24.92 -0.6 31 48 -10.2 13.7
11:25 1015 29.97 844 24.92 0.1 32.2 46 -10.1 13.8
11:30 1015 29.97 844 24.92 0.5 32.8 47 -9.6 14.8
11:35 1015 29.97 844 24.92 0.8 33.5 43 -10.3 13.5
11:40 1015 29.97 844 24.92 -0.1 31.9 48 -9.7 14.5
11:45 1015 29.97 844 24.92 0.2 32.4 48 -9.7 14.6
11:50 1015 29.97 844 24.92 0.7 33.2 45 -9.9 14.1
11:55 1015 29.97 845 24.95 -0.1 31.8 49 -9.5 14.9
12:00 1015 29.97 845 24.95 0.3 32.6 47 -9.8 14.4
12:05 1015 29.97 844 24.92 0.2 32.4 49 -9.3 15.2
12:10 1015 29.97 844 24.92 -0 32 49 -9.5 14.9
12:15 1015 29.97 844 24.92 0.7 33.3 46 -9.8 14.4
12:20 1015 29.97 844 24.92 0.6 33.1 49 -8.8 16.1
12:25 1015 29.97 844 24.92 0.6 33 48 -9.2 15.4
12:30 1015 29.97 844 24.92 0.2 32.4 50 -9 15.9
12:35 1015 29.97 844 24.92 0.2 32.4 49 -9.2 15.4
12:40 1015 29.97 844 24.92 0.6 33 48 -9.2 15.5
12:45 1015 29.97 844 24.92 1.3 34.3 48 -8.7 16.4
12:50 1015 29.97 844 24.92 1.3 34.4 47 -8.9 15.9
12:55 1015 29.97 844 24.92 1.4 34.4 45 -9.3 15.2
13:00 1015 29.97 844 24.92 0.8 33.5 48 -9 15.8
13:05 1015 29.97 844 24.92 0.9 33.6 47 -9.2 15.5
13:10 1015 29.97 844 24.92 1.3 34.4 46 -8.9 15.9
13:15 1015 29.97 844 24.92 1.4 34.6 45 -9.2 15.4
13:20 1015 29.97 844 24.92 1.2 34.2 44 -9.6 14.7
13:25 1015 29.97 844 24.92 1.3 34.3 45 -9.4 15
13:30 1015 29.97 844 24.92 1.5 34.7 45 -9.2 15.4
13:35 1015 29.97 844 24.92 1.2 34.2 46 -9.3 15.2
13:40 1015 29.97 844 24.92 1.2 34.2 45 -9.5 14.9
13:45 1015 29.97 844 24.92 0.9 33.6 46 -9.6 14.8
13:50 1015 29.97 844 24.92 1.1 34.1 46 -9.2 15.5
13:55 1014 29.94 844 24.92 1.2 34.2 46 -9.2 15.4
14:00 1014 29.94 844 24.92 0.7 33.3 48 -9.1 15.7
14:05 1014 29.94 844 24.92 0.6 33 48 -9.2 15.4
14:10 1014 29.94 844 24.92 0.7 33.2 49 -9 15.9
14:15 1015 29.97 844 24.92 1.3 34.3 47 -9 15.9
14:20 1015 29.97 844 24.92 1.2 34.2 47 -8.9 16
14:25 1015 29.97 844 24.92 1.1 34 47 -9 15.8
14:30 1014 29.94 844 24.92 0.8 33.4 49 -8.9 16
14:35 1014 29.94 844 24.92 1.3 34.3 46 -9.1 15.6
14:40 1015 29.97 844 24.92 1.7 35 45 -9.1 15.7
14:45 1015 29.97 844 24.92 1.6 34.9 45 -9.1 15.6
14:50 1015 29.97 844 24.92 1.9 35.4 43 -9.4 15.2
14:55 1015 29.97 844 24.92 2.3 36.1 44 -8.9 16
15:00 1015 29.97 844 24.92 2.2 36 44 -8.9 16
15:05 1015 29.97 844 24.92 2 35.6 45 -8.6 16.4
15:10 1015 29.97 844 24.92 1.8 35.2 47 -8.4 16.9
15:15 1015 29.97 844 24.92 1.7 35.1 46 -8.7 16.3
15:20 1015 29.97 844 24.92 1.7 35 47 -8.4 16.9
15:25 1015 29.97 844 24.92 1.8 35.2 46 -8.7 16.3
15:30 1015 29.97 844 24.92 1.7 35 47 -8.5 16.7
15:35 1015 29.97 844 24.92 1.9 35.3 46 -8.6 16.6
15:40 1015 29.97 844 24.92 1.9 35.5 46 -8.5 16.7
15:45 1015 29.97 844 24.92 2 35.6 46 -8.5 16.8
15:50 1015 29.97 844 24.92 2.2 36 44 -8.8 16.2
15:55 1015 29.97 844 24.92 2.2 36 45 -8.5 16.7
16:00 1015 29.97 844 24.92 1.8 35.2 46 -8.5 16.7
16:05 1015 29.97 844 24.92 1.8 35.2 49 -7.8 18
16:10 1015 29.97 844 24.92 1.8 35.3 46 -8.7 16.4
16:15 1015 29.97 844 24.92 1.7 35 48 -8.3 17
16:20 1015 29.97 844 24.92 1.8 35.2 45 -8.8 16.2
16:25 1015 29.97 844 24.92 1.8 35.2 48 -8.1 17.3
16:30 1015 29.97 844 24.92 1.9 35.4 45 -8.8 16.1
16:35 1015 29.97 844 24.92 2.3 36.1 44 -8.7 16.4
16:40 1015 29.97 844 24.92 2.3 36.1 45 -8.3 17
16:45 1015 29.97 844 24.92 1.9 35.4 47 -8.3 17
16:50 1015 29.97 844 24.92 1.8 35.2 48 -8 17.5
16:55 1015 29.97 844 24.92 1.7 35.1 47 -8.4 16.8
17:00 1015 29.97 844 24.92 1.5 34.8 48 -8.2 17.2
17:05 1015 29.97 844 24.92 1.4 34.5 50 -8 17.6
17:10 1015 29.97 844 24.92 1.5 34.6 50 -7.8 18
17:15 1015 29.97 844 24.92 1.2 34.1 50 -8.1 17.4
17:20 1015 29.97 844 24.92 1.1 34 49 -8.3 17
17:25 1015 29.97 844 24.92 1.1 33.9 49 -8.5 16.8
17:30 1015 29.97 844 24.92 0.9 33.7 49 -8.6 16.5
17:35 1015 29.97 844 24.92 1 33.9 48 -8.9 16
17:40 1015 29.97 844 24.92 1.2 34.1 48 -8.7 16.3
17:45 1015 29.97 844 24.92 1.6 34.8 47 -8.7 16.3
17:50 1015 29.97 844 24.92 1.8 35.2 46 -8.7 16.3
17:55 1015 29.97 844 24.92 1.8 35.3 47 -8.4 16.8
18:00 1015 29.97 844 24.92 1.8 35.2 47 -8.5 16.7
18:05 1015 29.97 844 24.92 1.5 34.6 48 -8.3 17
18:10 1015 29.97 844 24.92 1.2 34.2 49 -8.3 17
18:15 1015 29.97 844 24.92 1.1 33.9 49 -8.4 16.8
18:20 1015 29.97 844 24.92 1.1 33.9 52 -7.8 17.9
18:25 1015 29.97 844 24.92 1 33.8 51 -8.1 17.5
18:30 1015 29.97 844 24.92 1.1 33.9 49 -8.5 16.8
18:35 1015 29.97 844 24.92 1.2 34.1 50 -8.1 17.4
18:40 1015 29.97 844 24.92 1.2 34.1 52 -7.6 18.3
18:45 1015 29.97 844 24.92 1 33.7 54 -7.4 18.6
18:50 1015 29.97 844 24.92 0.7 33.2 54 -7.5 18.5
18:55 1015 29.97 844 24.92 0.6 33 55 -7.6 18.4
19:00 1015 29.97 844 24.92 0.5 32.9 55 -7.4 18.6
19:05 1015 29.97 844 24.92 0.5 32.9 56 -7.2 19
19:10 1015 29.97 844 24.92 0.5 32.8 56 -7.4 18.7
19:15 1015 29.97 844 24.92 0.3 32.6 56 -7.6 18.4
19:20 1015 29.97 844 24.92 0.3 32.5 56 -7.4 18.7
19:25 1015 29.97 844 24.92 0.2 32.4 57 -7.2 19
19:30 1015 29.97 844 24.92 0.1 32.1 58 -7.2 19
19:35 1015 29.97 844 24.92 -0.1 31.8 59 -7.3 18.9
19:40 1015 29.97 844 24.92 -0.2 31.7 61 -6.9 19.6
19:45 1015 29.97 844 24.92 -0.3 31.4 61 -6.9 19.6
19:50 1015 29.97 844 24.92 -0.4 31.3 61 -7 19.5
19:55 1015 29.97 844 24.92 -0.5 31.2 62 -6.8 19.8
20:00 1015 29.97 844 24.92 -0.5 31.1 63 -6.8 19.8
20:05 1015 29.97 844 24.92 -0.4 31.3 62 -6.7 19.9
20:10 1015 29.97 844 24.92 -0.5 31.1 64 -6.4 20.5
20:15 1015 29.97 844 24.92 -0.7 30.7 65 -6.6 20.1
20:20 1015 29.97 844 24.92 -0.8 30.6 65 -6.6 20.2
20:25 1015 29.97 844 24.92 -0.8 30.5 64 -6.8 19.7
20:30 1015 29.97 844 24.92 -0.7 30.7 64 -6.8 19.8
20:35 1015 29.97 844 24.92 -0.7 30.8 64 -6.7 20
20:40 1015 29.97 844 24.92 -0.8 30.5 67 -6.2 20.8
20:45 1015 29.97 844 24.92 -0.9 30.4 67 -6.3 20.7
20:50 1015 29.97 844 24.92 -0.8 30.6 66 -6.3 20.7
20:55 1015 29.97 844 24.92 -0.7 30.7 67 -6.1 21
21:00 1015 29.97 844 24.92 -0.8 30.6 67 -6.1 21
21:05 1015 29.97 844 24.92 -0.9 30.4 68 -6.1 21.1
21:10 1015 29.97 844 24.92 -1 30.2 68 -6.1 21
21:15 1014 29.94 844 24.92 -1.1 30 69 -6 21.1
21:20 1014 29.94 844 24.92 -1.1 30 68 -6.2 20.8
21:25 1014 29.94 844 24.92 -0.9 30.4 66 -6.4 20.4
21:30 1014 29.94 844 24.92 -0.9 30.4 65 -6.6 20
21:35 1014 29.94 844 24.92 -0.9 30.3 65 -6.7 20
21:40 1014 29.94 844 24.92 -1.1 30 64 -7 19.4
21:45 1014 29.94 843 24.89 -1.1 30 64 -7.1 19.3
21:50 1014 29.94 843 24.89 -1.2 29.9 63 -7.3 18.8
21:55 1014 29.94 843 24.89 -1 30.1 62 -7.4 18.6
22:00 1014 29.94 843 24.89 -1.1 30 61 -7.7 18.2
22:05 1014 29.94 843 24.89 -1.1 30 62 -7.5 18.4
22:10 1014 29.94 843 24.89 -1.1 30.1 61 -7.7 18.1
22:15 1014 29.94 843 24.89 -1.1 30 61 -7.7 18.2
22:20 1014 29.94 843 24.89 -1.1 30 61 -7.8 18
22:25 1014 29.94 843 24.89 -0.9 30.4 60 -7.8 18
22:30 1014 29.94 843 24.89 -0.7 30.7 57 -8.2 17.3
22:35 1014 29.94 843 24.89 -0.4 31.3 56 -8.1 17.4
22:40 1014 29.94 843 24.89 -0.2 31.6 55 -8.1 17.4
22:45 1014 29.94 843 24.89 -0.2 31.7 55 -8.1 17.5
22:50 1014 29.94 843 24.89 -0.2 31.7 56 -7.9 17.7
22:55 1014 29.94 843 24.89 -0.4 31.3 58 -7.7 18.1
23:00 1013 29.91 843 24.89 -0.5 31.1 58 -7.8 17.9
23:05 1013 29.91 843 24.89 -0.4 31.3 58 -7.7 18.1
23:10 1013 29.91 842 24.86 -0.4 31.2 58 -7.6 18.3
23:15 1013 29.91 842 24.86 -0.6 30.9 59 -7.6 18.4
23:20 1013 29.91 842 24.86 -0.7 30.8 59 -7.8 18
23:25 1013 29.91 842 24.86 -0.6 30.9 59 -7.7 18.1
23:30 1013 29.91 842 24.86 -0.6 30.9 59 -7.6 18.3
23:35 1013 29.91 842 24.86 -0.6 30.9 59 -7.6 18.4
23:40 1013 29.91 842 24.86 -0.6 30.9 59 -7.6 18.4
23:45 1013 29.91 842 24.86 -0.7 30.7 60 -7.6 18.4
23:50 1013 29.91 842 24.86 -0.8 30.5 59 -7.8 18
23:55 1013 29.91 842 24.86 -0.8 30.6 59 -7.7 18.1
24:00 1013 29.91 842 24.86 -0.6 30.9 60 -7.5 18.5